Time;durP1;ratioP1;P1;durP2;ratioP2;P2;SDS_P1;SDS_P2;PMS_P1;PMS_P2;Temp;Humidity;BMP_temperature;BMP_pressure;BME280_temperature;BME280_humidity;BME280_pressure;Samples;Min_cycle;Max_cycle;Signal;HPM_P1;HPM_P2
2021/03/19 00:03:28;;;;;;;22.00;11.00;;;;;;;0.24;100.00;98391.30;3728504;78;43968;-18
2021/03/19 00:08:35;;;;;;;16.00;8.27;;;;;;;0.27;100.00;98390.25;3653781;79;43409;-18
2021/03/19 00:13:41;;;;;;;22.07;11.17;;;;;;;0.30;100.00;98386.92;3743620;78;43328;-18
2021/03/19 00:18:47;;;;;;;23.10;10.53;;;;;;;0.24;100.00;98389.97;3735418;78;44074;-18
2021/03/19 00:23:53;;;;;;;19.63;10.47;;;;;;;0.20;100.00;98395.08;3732597;78;43718;-18
2021/03/19 00:28:59;;;;;;;22.90;11.47;;;;;;;0.18;100.00;98389.51;3736452;77;43977;-18
2021/03/19 00:34:06;;;;;;;22.57;11.37;;;;;;;0.15;100.00;98395.86;3729296;78;43106;-18
2021/03/19 00:39:13;;;;;;;24.47;12.20;;;;;;;0.04;100.00;98394.36;3736310;78;43703;-18
2021/03/19 00:44:19;;;;;;;24.03;12.10;;;;;;;0.06;100.00;98385.84;3757192;78;42887;-18
2021/03/19 00:49:26;;;;;;;23.73;11.87;;;;;;;0.09;100.00;98387.83;3752222;78;43433;-18
2021/03/19 00:54:33;;;;;;;23.70;11.77;;;;;;;0.04;100.00;98378.46;3758531;78;44015;-19
2021/03/19 00:59:39;;;;;;;25.30;12.30;;;;;;;-0.01;100.00;98376.94;3735578;77;43704;-18
2021/03/19 01:04:45;;;;;;;26.87;13.07;;;;;;;0.02;100.00;98375.89;3747200;78;44488;-18
2021/03/19 01:09:51;;;;;;;25.07;12.30;;;;;;;0.03;100.00;98369.65;3741736;78;44414;-18
2021/03/19 01:14:58;;;;;;;27.73;13.17;;;;;;;0.06;100.00;98364.66;3762952;77;43301;-18
2021/03/19 01:20:07;;;;;;;28.57;13.43;;;;;;;0.10;100.00;98368.79;3710976;78;43041;-18
2021/03/19 01:25:16;;;;;;;27.53;13.27;;;;;;;0.09;100.00;98369.28;3621359;80;43670;-18
2021/03/19 01:30:25;;;;;;;27.37;12.50;;;;;;;0.08;100.00;98369.36;3715328;78;44002;-18
2021/03/19 01:35:34;;;;;;;26.13;12.40;;;;;;;0.08;100.00;98373.33;3628926;80;43677;-18
2021/03/19 01:40:42;;;;;;;24.13;12.37;;;;;;;0.06;100.00;98373.44;3743669;78;43407;-19
2021/03/19 01:46:24;;;;;;;36.10;15.67;;;;;;;0.09;100.00;98363.11;3761156;78;44077;-18
2021/03/19 01:52:07;;;;;;;30.03;14.20;;;;;;;0.17;100.00;98367.94;3714417;78;43012;-18
2021/03/19 01:57:49;;;;;;;29.53;14.07;;;;;;;0.07;100.00;98372.95;3762355;78;43399;-18
2021/03/19 02:03:30;;;;;;;30.03;14.47;;;;;;;-0.04;100.00;98373.15;3760277;78;43721;-18
2021/03/19 02:09:12;;;;;;;33.30;15.07;;;;;;;-0.02;100.00;98371.27;3758430;78;43116;-18
2021/03/19 02:14:53;;;;;;;34.80;15.10;;;;;;;-0.01;100.00;98386.21;3764803;78;43397;-18
2021/03/19 02:20:34;;;;;;;39.87;16.97;;;;;;;-0.05;100.00;98374.09;3781672;78;43405;-18
2021/03/19 02:26:15;;;;;;;38.63;16.47;;;;;;;0.06;100.00;98379.22;3768210;78;44055;-18
2021/03/19 02:31:43;;;;;;;53.93;21.83;;;;;;;0.07;100.00;98376.47;3769796;78;44054;-18
2021/03/19 02:36:49;;;;;;;51.40;21.53;;;;;;;0.07;100.00;98377.79;3720933;79;42770;-19
2021/03/19 02:41:55;;;;;;;55.90;22.43;;;;;;;0.15;100.00;98378.64;3630183;80;43340;-19
2021/03/19 02:47:01;;;;;;;56.80;22.43;;;;;;;0.14;100.00;98384.87;3752065;78;44077;-19
2021/03/19 02:52:08;;;;;;;58.43;24.47;;;;;;;0.15;100.00;98383.94;3751440;78;44302;-19
2021/03/19 02:57:14;;;;;;;57.77;23.97;;;;;;;0.11;100.00;98383.73;3764483;78;43430;-19
2021/03/19 03:02:21;;;;;;;62.93;23.50;;;;;;;0.08;100.00;98390.09;3753093;78;43680;-19
2021/03/19 03:07:30;;;;;;;64.23;25.43;;;;;;;0.13;100.00;98396.42;3746501;78;43276;-19
2021/03/19 03:12:38;;;;;;;63.87;25.40;;;;;;;0.09;100.00;98391.80;3745100;78;44035;-19
2021/03/19 03:17:45;;;;;;;69.80;25.63;;;;;;;0.06;100.00;98392.47;3723953;78;43725;-19
2021/03/19 03:22:52;;;;;;;67.13;25.90;;;;;;;0.03;100.00;98400.59;3696240;78;43125;-18
2021/03/19 03:27:57;;;;;;;69.93;26.10;;;;;;;0.12;100.00;98401.34;3719544;78;44116;-18
2021/03/19 03:33:05;;;;;;;72.40;27.50;;;;;;;0.10;100.00;98404.55;3726012;77;43657;-19
2021/03/19 03:38:14;;;;;;;68.63;25.30;;;;;;;0.11;100.00;98403.61;3741604;78;43502;-18
2021/03/19 03:43:20;;;;;;;66.33;25.83;;;;;;;0.12;100.00;98403.50;3757277;78;43718;-19
2021/03/19 03:48:29;;;;;;;51.37;21.70;;;;;;;0.11;100.00;98397.86;3773155;78;43680;-19
2021/03/19 03:53:35;;;;;;;51.53;22.40;;;;;;;0.11;100.00;98402.28;3725366;78;43676;-18
2021/03/19 03:58:42;;;;;;;48.03;21.33;;;;;;;0.18;100.00;98404.92;3689045;79;44044;-18
2021/03/19 04:03:47;;;;;;;48.60;20.20;;;;;;;0.16;100.00;98405.52;3627517;80;44500;-18
2021/03/19 04:08:54;;;;;;;42.07;18.97;;;;;;;0.17;100.00;98404.56;3726345;79;43690;-18
2021/03/19 04:13:59;;;;;;;39.47;18.20;;;;;;;0.11;100.00;98410.23;3657320;80;45007;-18
2021/03/19 04:19:05;;;;;;;34.87;17.33;;;;;;;0.01;100.00;98409.94;3712931;79;43977;-18
2021/03/19 04:24:12;;;;;;;36.23;16.57;;;;;;;0.06;100.00;98409.69;3665518;80;44625;-18
2021/03/19 04:29:17;;;;;;;31.90;16.60;;;;;;;-0.06;100.00;98412.11;3730974;79;44018;-18
2021/03/19 04:34:23;;;;;;;33.27;15.57;;;;;;;-0.05;100.00;98417.80;3665905;80;43376;-18
2021/03/19 04:39:31;;;;;;;30.00;15.73;;;;;;;-0.07;100.00;98421.03;3733979;79;44492;-18
2021/03/19 04:44:40;;;;;;;32.73;16.50;;;;;;;-0.08;100.00;98413.16;3666256;80;42861;-18
2021/03/19 04:49:47;;;;;;;32.50;16.10;;;;;;;-0.02;100.00;98420.75;3727310;79;44012;-18
2021/03/19 04:54:53;;;;;;;36.87;17.57;;;;;;;-0.06;100.00;98424.03;3668526;80;42108;-18
2021/03/19 05:00:00;;;;;;;31.43;16.67;;;;;;;-0.02;100.00;98430.86;3733251;79;44129;-18
2021/03/19 05:05:10;;;;;;;33.23;16.87;;;;;;;-0.01;100.00;98434.38;3662706;80;44024;-18
2021/03/19 05:10:18;;;;;;;36.93;17.23;;;;;;;0.04;100.00;98440.71;3733644;79;44094;-18
2021/03/19 05:15:26;;;;;;;37.13;17.27;;;;;;;0.03;100.00;98441.66;3657480;80;43362;-18
2021/03/19 05:20:33;;;;;;;38.13;17.33;;;;;;;-0.03;100.00;98443.72;3662499;79;43126;-18
2021/03/19 05:25:39;;;;;;;32.63;16.13;;;;;;;0.02;100.00;98450.05;3625725;80;43517;-18
2021/03/19 05:30:45;;;;;;;32.27;15.50;;;;;;;0.01;100.00;98456.78;3715826;79;44117;-18
2021/03/19 05:35:50;;;;;;;35.03;16.17;;;;;;;0.02;100.00;98453.19;3656182;80;43066;-18
2021/03/19 05:40:58;;;;;;;38.17;17.80;;;;;;;-0.02;100.00;98466.61;3722490;79;43466;-18
2021/03/19 05:46:09;;;;;;;36.20;17.43;;;;;;;-0.05;100.00;98460.17;3731282;77;43677;-18
2021/03/19 05:51:24;;;;;;;38.73;17.87;;;;;;;-0.04;100.00;98472.47;3740240;77;43706;-18
2021/03/19 05:56:32;;;;;;;38.17;17.73;;;;;;;0.01;100.00;98473.51;3746636;79;43079;-18
2021/03/19 06:01:39;;;;;;;40.20;17.87;;;;;;;-0.02;100.00;98481.17;3752555;79;43491;-18
2021/03/19 06:06:54;;;;;;;45.30;19.50;;;;;;;-0.05;100.00;98487.14;3746347;79;44035;-18
2021/03/19 06:12:02;;;;;;;42.27;18.17;;;;;;;-0.03;100.00;98484.77;3744367;79;43381;-18
2021/03/19 06:17:17;;;;;;;41.73;18.33;;;;;;;0.00;100.00;98493.03;3751804;79;43754;-18
2021/03/19 06:22:32;;;;;;;39.57;17.87;;;;;;;-0.09;100.00;98503.69;3738529;79;43694;-18
2021/03/19 06:27:43;;;;;;;34.07;17.43;;;;;;;-0.13;100.00;98507.45;3657150;80;43066;-18
2021/03/19 06:33:02;;;;;;;33.53;16.50;;;;;;;-0.16;100.00;98519.09;3744655;79;44102;-18
2021/03/19 06:38:32;;;;;;;38.90;17.60;;;;;;;-0.13;100.00;98523.34;3749547;79;44146;-18
2021/03/19 06:43:37;;;;;;;36.20;16.47;;;;;;;-0.17;100.00;98524.46;3647873;79;43494;-18
2021/03/19 06:48:46;;;;;;;34.40;16.47;;;;;;;-0.23;100.00;98532.78;3740428;78;44065;-18
2021/03/19 06:54:00;;;;;;;34.33;17.00;;;;;;;-0.27;100.00;98545.80;3656518;79;44044;-18
2021/03/19 06:59:21;;;;;;;32.97;16.20;;;;;;;-0.28;100.00;98533.05;3757072;78;43680;-18
2021/03/19 07:04:49;;;;;;;37.23;17.67;;;;;;;-0.26;100.00;98547.06;3640788;80;44007;-18
2021/03/19 07:10:00;;;;;;;35.30;17.03;;;;;;;-0.26;100.00;98545.73;3732518;78;44425;-18
2021/03/19 07:15:40;;;;;;;33.53;16.23;;;;;;;-0.28;100.00;98552.05;3710613;78;43025;-18
2021/03/19 07:21:20;;;;;;;29.67;14.70;;;;;;;-0.26;100.00;98558.11;3681342;77;44002;-18
2021/03/19 07:26:29;;;;;;;29.57;14.23;;;;;;;-0.29;100.00;98568.90;3734760;78;44671;-18
2021/03/19 07:32:03;;;;;;;28.60;14.17;;;;;;;-0.26;100.00;98572.22;3647117;80;44092;-18
2021/03/19 07:37:13;;;;;;;29.73;14.30;;;;;;;-0.14;100.00;98577.25;3750755;78;43754;-18
2021/03/19 07:42:46;;;;;;;30.80;14.63;;;;;;;-0.04;100.00;98587.69;3755671;78;43411;-18
2021/03/19 07:48:04;;;;;;;29.93;14.73;;;;;;;-0.09;100.00;98591.09;3721549;78;43447;-18
2021/03/19 07:53:24;;;;;;;30.70;14.90;;;;;;;-0.06;100.00;98600.64;3657908;80;43096;-18
2021/03/19 07:58:41;;;;;;;26.73;13.90;;;;;;;-0.01;100.00;98603.41;3657907;80;44244;-18
2021/03/19 08:03:48;;;;;;;27.80;13.20;;;;;;;0.12;100.00;98599.55;3742092;78;44190;-18
2021/03/19 08:08:58;;;;;;;35.77;15.37;;;;;;;0.14;100.00;98609.59;3748086;78;44441;-18
2021/03/19 08:14:39;;;;;;;33.53;15.47;;;;;;;0.26;100.00;98606.70;3749852;77;43470;-18
2021/03/19 08:19:48;;;;;;;34.13;16.30;;;;;;;0.29;100.00;98599.02;3723712;78;43156;-18
2021/03/19 08:24:58;;;;;;;32.33;16.87;;;;;;;0.33;100.00;98600.56;3745332;78;44534;-18
2021/03/19 08:30:08;;;;;;;35.70;16.40;;;;;;;0.50;100.00;98613.25;3766205;77;43712;-18
2021/03/19 08:35:21;;;;;;;30.43;16.23;;;;;;;0.59;100.00;98615.33;3748430;78;44413;-18
2021/03/19 08:40:31;;;;;;;32.10;15.80;;;;;;;0.67;100.00;98610.89;3752232;78;43472;-18
2021/03/19 08:45:37;;;;;;;28.20;14.13;;;;;;;0.64;100.00;98617.24;3747319;78;43654;-18
2021/03/19 08:50:44;;;;;;;28.43;14.73;;;;;;;0.71;100.00;98624.35;3757728;78;43267;-18
2021/03/19 08:55:54;;;;;;;30.47;15.17;;;;;;;0.72;100.00;98643.30;3750871;77;43689;-18
2021/03/19 09:01:01;;;;;;;26.90;13.37;;;;;;;0.74;100.00;98648.88;3733347;78;43767;-18
2021/03/19 09:06:13;;;;;;;29.17;14.00;;;;;;;0.62;100.00;98650.95;3712493;78;44027;-18
2021/03/19 09:11:23;;;;;;;32.00;16.90;;;;;;;0.76;100.00;98668.70;3692015;78;43664;-18
2021/03/19 09:16:55;;;;;;;34.37;18.00;;;;;;;0.44;100.00;98671.46;3724412;78;44014;-17
2021/03/19 09:22:30;;;;;;;35.60;17.70;;;;;;;0.45;100.00;98685.09;3727546;77;43748;-17
2021/03/19 09:27:37;;;;;;;33.13;17.03;;;;;;;0.48;100.00;98690.68;3644072;80;43277;-18
2021/03/19 09:32:46;;;;;;;34.40;18.13;;;;;;;0.67;100.00;98691.31;3754808;77;44121;-17
2021/03/19 09:37:56;;;;;;;30.63;15.97;;;;;;;0.96;100.00;98687.84;3747787;78;43643;-18
2021/03/19 09:43:04;;;;;;;29.03;14.87;;;;;;;1.14;100.00;98699.13;3738743;78;43682;-17
2021/03/19 09:48:42;;;;;;;29.93;15.63;;;;;;;1.24;100.00;98704.23;3775913;78;43335;-17
2021/03/19 09:53:48;;;;;;;24.00;12.10;;;;;;;1.46;100.00;98701.10;3774692;78;43174;-18
2021/03/19 09:58:56;;;;;;;24.40;12.40;;;;;;;1.13;100.00;98706.21;3783632;78;44110;-17
2021/03/19 10:04:05;;;;;;;26.13;13.93;;;;;;;1.20;100.00;98713.32;3780926;78;44030;-18
2021/03/19 10:09:19;;;;;;;27.87;13.53;;;;;;;1.09;100.00;98719.30;3778006;78;43734;-18
2021/03/19 10:14:29;;;;;;;25.23;12.43;;;;;;;1.22;100.00;98722.05;3770246;78;43773;-18
2021/03/19 10:19:37;;;;;;;21.47;12.03;;;;;;;1.42;100.00;98730.11;3772357;78;44079;-17
2021/03/19 10:24:43;;;;;;;16.00;9.00;;;;;;;1.40;100.00;98720.05;3778262;78;43701;-17
2021/03/19 10:29:51;;;;;;;17.63;10.40;;;;;;;1.58;100.00;98723.84;3778107;78;44030;-17
2021/03/19 10:35:00;;;;;;;16.60;10.30;;;;;;;1.61;100.00;98722.30;3766259;78;44217;-18
2021/03/19 10:40:09;;;;;;;17.03;9.67;;;;;;;1.58;100.00;98724.69;3786962;78;43684;-18
2021/03/19 10:45:31;;;;;;;12.00;7.30;;;;;;;1.65;100.00;98725.98;3774670;78;43038;-18
2021/03/19 10:50:40;;;;;;;12.83;7.60;;;;;;;1.90;100.00;98726.24;3777640;78;43738;-18
2021/03/19 10:55:49;;;;;;;16.30;9.30;;;;;;;1.61;100.00;98730.27;3776331;78;43680;-18
2021/03/19 11:00:58;;;;;;;17.00;10.20;;;;;;;1.61;100.00;98740.89;3712101;78;44691;-17
2021/03/19 11:06:08;;;;;;;17.43;10.57;;;;;;;1.71;100.00;98744.67;3722307;78;44030;-17
2021/03/19 11:11:13;;;;;;;18.60;10.07;;;;;;;1.82;100.00;98751.48;3755355;78;43553;-17
2021/03/19 11:16:34;;;;;;;18.33;10.50;;;;;;;1.96;100.00;98745.77;3749029;78;43335;-17
2021/03/19 11:21:43;;;;;;;18.83;11.70;;;;;;;1.90;100.00;98753.66;3764344;78;44019;-17
2021/03/19 11:27:01;;;;;;;19.53;12.27;;;;;;;2.12;100.00;98755.80;3723672;79;43711;-18
2021/03/19 11:32:33;;;;;;;20.17;11.83;;;;;;;2.42;100.00;98753.39;3659176;80;44490;-18
2021/03/19 11:37:43;;;;;;;18.57;11.70;;;;;;;2.02;100.00;98758.67;3668672;80;43714;-18
2021/03/19 11:42:51;;;;;;;16.77;10.77;;;;;;;1.89;100.00;98754.59;3725659;79;44049;-18
2021/03/19 11:48:07;;;;;;;16.93;9.40;;;;;;;2.34;100.00;98763.69;3672001;80;44039;-18
2021/03/19 11:53:20;;;;;;;16.20;8.97;;;;;;;2.38;100.00;98769.19;3746501;77;43821;-18
2021/03/19 11:58:29;;;;;;;17.53;9.73;;;;;;;2.18;100.00;98765.63;3735861;79;43725;-17
2021/03/19 12:03:38;;;;;;;14.50;8.60;;;;;;;2.35;100.00;98756.09;3753501;79;44143;-17
2021/03/19 12:08:45;;;;;;;15.10;8.87;;;;;;;2.66;100.00;98744.73;3737086;79;44082;-17
2021/03/19 12:13:52;;;;;;;12.00;7.23;;;;;;;2.80;100.00;98747.81;3657856;80;44488;-17
2021/03/19 12:18:58;;;;;;;12.60;7.60;;;;;;;2.78;100.00;98757.70;3756399;78;43345;-17
2021/03/19 12:24:05;;;;;;;11.43;7.27;;;;;;;2.57;100.00;98763.97;3751929;78;44086;-17
2021/03/19 12:29:11;;;;;;;14.80;8.77;;;;;;;2.37;100.00;98764.83;3759618;78;42987;-17
2021/03/19 12:34:17;;;;;;;15.83;8.03;;;;;;;2.80;100.00;98763.78;3748716;78;43334;-18
2021/03/19 12:39:24;;;;;;;14.97;8.00;;;;;;;3.13;100.00;98757.56;3752627;78;44052;-17
2021/03/19 12:44:30;;;;;;;10.70;6.50;;;;;;;3.20;100.00;98746.88;3744723;78;44703;-17
2021/03/19 12:49:36;;;;;;;11.73;6.57;;;;;;;3.32;98.28;98738.04;3767931;78;43717;-17
2021/03/19 12:54:43;;;;;;;11.00;6.43;;;;;;;3.06;100.00;98758.47;3708004;78;43677;-18
2021/03/19 12:59:49;;;;;;;12.50;7.43;;;;;;;2.73;100.00;98763.34;3770211;78;44007;-18
2021/03/19 13:04:56;;;;;;;13.17;7.50;;;;;;;2.51;100.00;98769.22;3773036;78;44025;-18
2021/03/19 13:10:02;;;;;;;14.33;6.73;;;;;;;2.14;100.00;98769.84;3751845;78;44049;-18
2021/03/19 13:15:13;;;;;;;14.47;7.13;;;;;;;1.68;100.00;98777.59;3764320;78;45237;-18
2021/03/19 13:20:21;;;;;;;13.47;7.90;;;;;;;1.83;100.00;98777.09;3779689;78;43521;-18
2021/03/19 13:25:30;;;;;;;12.17;6.77;;;;;;;1.92;100.00;98772.17;3775605;78;44089;-17
2021/03/19 13:30:37;;;;;;;12.20;6.30;;;;;;;1.91;100.00;98773.95;3781088;78;44268;-18
2021/03/19 13:35:44;;;;;;;10.67;6.03;;;;;;;1.87;100.00;98775.58;3757400;78;43681;-17
2021/03/19 13:40:53;;;;;;;11.03;5.10;;;;;;;2.20;100.00;98766.39;3774267;78;43297;-18
2021/03/19 13:46:00;;;;;;;7.97;4.50;;;;;;;2.41;100.00;98755.67;3774177;78;44105;-18
2021/03/19 13:51:10;;;;;;;9.73;4.93;;;;;;;2.92;100.00;98763.41;3750815;78;44396;-17
2021/03/19 13:56:20;;;;;;;7.30;4.93;;;;;;;2.95;100.00;98771.19;3737631;78;43089;-18
2021/03/19 14:01:24;;;;;;;8.23;4.70;;;;;;;3.31;100.00;98768.75;3745616;78;43612;-18
2021/03/19 14:06:30;;;;;;;6.67;4.57;;;;;;;3.49;96.72;98763.95;3740838;78;43159;-18
2021/03/19 14:11:36;;;;;;;8.17;5.03;;;;;;;3.16;100.00;98775.54;3759933;78;43471;-18
2021/03/19 14:16:43;;;;;;;8.33;4.50;;;;;;;2.36;100.00;98796.36;3730948;78;43733;-18
2021/03/19 14:21:52;;;;;;;8.63;5.10;;;;;;;2.21;100.00;98786.25;3658107;80;43681;-18
2021/03/19 14:26:57;;;;;;;7.60;5.00;;;;;;;2.09;100.00;98782.55;3734062;78;43722;-18
2021/03/19 14:32:03;;;;;;;8.03;5.20;;;;;;;2.24;100.00;98783.37;3651822;79;43710;-18
2021/03/19 14:37:10;;;;;;;5.43;3.43;;;;;;;3.29;100.00;98781.34;3738761;78;43758;-18
2021/03/19 14:42:16;;;;;;;5.57;3.77;;;;;;;2.77;100.00;98771.47;3722642;78;43293;-18
2021/03/19 14:47:22;;;;;;;6.53;4.20;;;;;;;3.53;100.00;98767.63;3696346;78;43225;-18
2021/03/19 14:52:28;;;;;;;5.07;3.60;;;;;;;4.40;100.00;98754.76;3723701;78;44835;-18
2021/03/19 14:57:35;;;;;;;3.77;3.17;;;;;;;4.83;100.00;98760.03;3712702;78;43786;-18
2021/03/19 15:02:40;;;;;;;5.07;2.87;;;;;;;4.11;97.73;98760.44;3653788;80;43682;-18
2021/03/19 15:07:48;;;;;;;5.07;3.40;;;;;;;3.55;92.33;98763.05;3754954;77;43354;-18
2021/03/19 15:12:55;;;;;;;3.13;2.60;;;;;;;3.18;90.18;98772.75;3734170;78;43342;-18
2021/03/19 15:18:01;;;;;;;4.67;2.50;;;;;;;2.44;100.00;98804.67;3658896;80;43694;-18
2021/03/19 15:23:07;;;;;;;3.90;3.00;;;;;;;1.82;100.00;98819.22;3748008;78;44078;-18
2021/03/19 15:28:14;;;;;;;4.50;3.27;;;;;;;1.35;100.00;98827.86;3732803;78;42965;-18
2021/03/19 15:33:20;;;;;;;4.87;3.40;;;;;;;1.35;100.00;98817.73;3756551;78;43672;-18
2021/03/19 15:38:27;;;;;;;5.53;4.03;;;;;;;1.53;100.00;98809.08;3743839;78;43936;-17
2021/03/19 15:43:34;;;;;;;4.63;3.67;;;;;;;1.56;100.00;98809.39;3749369;78;43430;-17
2021/03/19 15:48:43;;;;;;;4.57;3.67;;;;;;;1.39;100.00;98829.84;3766557;78;43457;-17
2021/03/19 15:53:49;;;;;;;8.17;4.40;;;;;;;0.81;100.00;98849.61;3782067;78;43250;-17
2021/03/19 15:58:56;;;;;;;1.73;1.50;;;;;;;0.45;100.00;98860.05;3775594;78;43735;-17
2021/03/19 16:04:04;;;;;;;1.70;1.40;;;;;;;0.05;100.00;98853.84;3782100;78;44290;-17
2021/03/19 16:09:10;;;;;;;1.70;1.10;;;;;;;-0.08;100.00;98847.51;3784023;78;43699;-17
2021/03/19 16:14:16;;;;;;;1.83;1.30;;;;;;;-0.07;100.00;98834.20;3757175;78;42721;-16
2021/03/19 16:19:22;;;;;;;1.73;1.33;;;;;;;-0.03;100.00;98848.97;3706073;79;43321;-17
2021/03/19 16:24:28;;;;;;;1.40;1.20;;;;;;;-0.03;100.00;98852.94;3697857;79;43423;-17
2021/03/19 16:29:34;;;;;;;2.10;1.37;;;;;;;-0.01;100.00;98859.50;3702315;79;44602;-17
2021/03/19 16:34:42;;;;;;;1.97;1.37;;;;;;;0.02;100.00;98860.63;3713488;79;43008;-17
2021/03/19 16:39:48;;;;;;;2.37;1.60;;;;;;;0.03;100.00;98863.67;3730989;79;43708;-17
2021/03/19 16:44:54;;;;;;;2.07;1.50;;;;;;;0.67;100.00;98868.11;3721174;79;43344;-17
2021/03/19 16:50:00;;;;;;;2.60;1.83;;;;;;;0.51;100.00;98868.13;3734879;78;44097;-17
2021/03/19 16:55:09;;;;;;;3.37;2.10;;;;;;;0.50;100.00;98879.22;3719482;79;44074;-18
2021/03/19 17:00:19;;;;;;;2.93;1.70;;;;;;;0.41;100.00;98875.77;3733224;79;44063;-17
2021/03/19 17:05:25;;;;;;;2.73;1.87;;;;;;;0.34;100.00;98891.61;3726633;79;43690;-17
2021/03/19 17:10:32;;;;;;;3.60;2.10;;;;;;;0.31;100.00;98904.56;3729531;79;43126;-17
2021/03/19 17:15:41;;;;;;;3.43;1.73;;;;;;;0.13;100.00;98919.67;3727928;79;43064;-17
2021/03/19 17:20:48;;;;;;;1.93;1.37;;;;;;;-0.24;100.00;98917.20;3725939;79;43055;-21
2021/03/19 17:25:55;;;;;;;1.73;1.20;;;;;;;-0.40;100.00;98918.93;3716373;79;43717;-17
2021/03/19 17:31:02;;;;;;;3.13;2.10;;;;;;;-0.50;100.00;98909.27;3647724;80;44269;-17
2021/03/19 17:36:12;;;;;;;3.40;2.53;;;;;;;-0.48;100.00;98921.52;3709004;79;43003;-17
2021/03/19 17:41:20;;;;;;;3.83;2.63;;;;;;;-0.52;100.00;98929.22;3715526;79;44019;-17
2021/03/19 17:46:26;;;;;;;3.80;2.57;;;;;;;-0.43;100.00;98934.52;3716549;79;44185;-17
2021/03/19 17:51:34;;;;;;;4.77;2.77;;;;;;;-0.36;100.00;98933.73;3745905;79;44062;-17
2021/03/19 17:56:40;;;;;;;4.43;2.70;;;;;;;-0.35;100.00;98949.52;3664574;80;44589;-17
2021/03/19 18:01:46;;;;;;;13.27;6.40;;;;;;;-0.26;100.00;98963.22;3694545;79;44651;-17
2021/03/19 18:06:54;;;;;;;3.83;2.50;;;;;;;-0.48;100.00;98951.09;3752382;79;44042;-17
2021/03/19 18:12:00;;;;;;;4.30;1.93;;;;;;;-0.59;100.00;98969.30;3695066;79;43997;-16
2021/03/19 18:17:06;;;;;;;4.27;1.70;;;;;;;-0.70;100.00;98979.09;3728342;79;43433;-17
2021/03/19 18:22:15;;;;;;;2.40;1.93;;;;;;;-0.79;100.00;98969.84;3726054;78;43689;-16
2021/03/19 18:27:23;;;;;;;3.53;2.00;;;;;;;-0.86;100.00;98965.77;3654239;79;43291;-20
2021/03/19 18:32:29;;;;;;;4.40;2.80;;;;;;;-0.87;100.00;98958.77;3552921;83;44051;-17
2021/03/19 18:37:37;;;;;;;5.30;3.10;;;;;;;-0.91;100.00;98960.70;3676103;78;44054;-17
2021/03/19 18:42:44;;;;;;;6.37;2.93;;;;;;;-0.92;100.00;98965.60;3675221;80;44065;-17
2021/03/19 18:47:50;;;;;;;4.77;2.80;;;;;;;-0.90;100.00;98980.09;3691649;79;44069;-17
2021/03/19 18:53:00;;;;;;;4.57;2.70;;;;;;;-1.00;100.00;98985.81;3650869;80;43389;-17
2021/03/19 18:58:06;;;;;;;6.83;2.70;;;;;;;-1.02;100.00;99004.89;3709922;79;44066;-17
2021/03/19 19:03:12;;;;;;;4.47;2.40;;;;;;;-1.12;100.00;99005.78;3631550;80;44622;-17
2021/03/19 19:08:18;;;;;;;3.67;2.30;;;;;;;-1.12;100.00;99012.88;3706573;79;43677;-17
2021/03/19 19:13:24;;;;;;;4.43;2.40;;;;;;;-1.18;100.00;99018.44;3642097;79;44089;-18
2021/03/19 19:18:30;;;;;;;5.33;2.60;;;;;;;-1.13;100.00;99034.95;3700983;79;43677;-17
2021/03/19 19:23:37;;;;;;;5.50;3.07;;;;;;;-1.07;100.00;99039.09;3637329;79;44050;-17
2021/03/19 19:28:44;;;;;;;4.90;3.07;;;;;;;-1.12;100.00;99033.55;3704454;79;43315;-18
2021/03/19 19:33:51;;;;;;;4.77;3.00;;;;;;;-1.13;100.00;99045.05;3636568;79;43268;-17
2021/03/19 19:38:57;;;;;;;5.07;3.33;;;;;;;-1.21;100.00;99059.11;3693823;79;44213;-18
2021/03/19 19:44:04;;;;;;;4.87;3.10;;;;;;;-1.21;100.00;99054.27;3623323;79;43388;-18
2021/03/19 19:49:11;;;;;;;5.90;2.83;;;;;;;-1.23;100.00;99070.21;3721557;79;44118;-17
2021/03/19 19:54:18;;;;;;;6.80;3.00;;;;;;;-1.20;100.00;99066.56;3666143;80;44106;-17
2021/03/19 19:59:23;;;;;;;6.13;3.00;;;;;;;-1.27;100.00;99066.86;3705296;79;43755;-18
2021/03/19 20:04:29;;;;;;;4.33;2.70;;;;;;;-1.31;100.00;99070.56;3663088;80;44074;-20
2021/03/19 20:09:36;;;;;;;6.47;2.60;;;;;;;-1.34;100.00;99081.27;3743473;79;44190;-17
2021/03/19 20:14:42;;;;;;;4.97;2.63;;;;;;;-1.36;100.00;99084.91;3646995;80;44082;-18
2021/03/19 20:19:48;;;;;;;4.33;2.57;;;;;;;-1.40;100.00;99092.13;3728185;79;44781;-18
2021/03/19 20:24:55;;;;;;;5.27;2.33;;;;;;;-1.48;100.00;99088.98;3642968;79;44034;-18
2021/03/19 20:30:01;;;;;;;3.20;1.90;;;;;;;-1.59;100.00;99100.86;3749692;79;43329;-18
2021/03/19 20:35:10;;;;;;;2.67;1.87;;;;;;;-1.56;100.00;99106.02;3662596;79;44087;-17
2021/03/19 20:40:20;;;;;;;3.57;1.77;;;;;;;-1.62;100.00;99106.30;3738895;78;43361;-17
2021/03/19 20:45:28;;;;;;;2.77;1.63;;;;;;;-1.59;100.00;99102.18;3663383;79;43701;-17
2021/03/19 20:50:37;;;;;;;4.33;1.50;;;;;;;-1.52;100.00;99117.78;3629825;80;42800;-18
2021/03/19 20:55:43;;;;;;;4.73;1.40;;;;;;;-1.51;100.00;99123.47;3727440;77;44062;-17
2021/03/19 21:00:54;;;;;;;4.00;1.60;;;;;;;-1.50;100.00;99127.83;3717467;78;43736;-19
2021/03/19 21:06:03;;;;;;;6.10;1.73;;;;;;;-1.50;100.00;99134.44;3718828;77;44568;-18
2021/03/19 21:11:11;;;;;;;3.03;1.70;;;;;;;-1.54;100.00;99139.00;3725501;78;44157;-18
2021/03/19 21:16:18;;;;;;;3.60;1.30;;;;;;;-1.68;100.00;99141.38;3724725;78;43320;-17
2021/03/19 21:21:24;;;;;;;3.47;1.80;;;;;;;-1.77;100.00;99150.55;3702885;78;43677;-18
2021/03/19 21:26:30;;;;;;;2.83;1.50;;;;;;;-2.00;100.00;99170.86;3719676;78;43733;-17
2021/03/19 21:31:37;;;;;;;2.50;1.27;;;;;;;-2.17;100.00;99171.56;3714708;77;44249;-17
2021/03/19 21:36:43;;;;;;;5.63;1.70;;;;;;;-2.32;100.00;99175.20;3716958;78;44046;-17
2021/03/19 21:41:50;;;;;;;2.60;1.30;;;;;;;-2.38;100.00;99185.14;3715148;78;43698;-17
2021/03/19 21:46:57;;;;;;;2.47;1.27;;;;;;;-2.49;100.00;99185.11;3706661;78;44108;-17
2021/03/19 21:52:05;;;;;;;1.60;1.10;;;;;;;-2.46;100.00;99180.64;3635557;80;43995;-17
2021/03/19 21:57:12;;;;;;;2.30;1.20;;;;;;;-2.56;100.00;99186.28;3639255;80;44621;-16
2021/03/19 22:02:18;;;;;;;2.20;1.40;;;;;;;-2.52;100.00;99194.94;3613948;80;44053;-16
2021/03/19 22:07:24;;;;;;;3.30;1.23;;;;;;;-2.61;98.10;99193.98;3617193;80;43673;-17
2021/03/19 22:12:30;;;;;;;3.47;1.43;;;;;;;-2.65;98.86;99198.52;3639257;80;44654;-17
2021/03/19 22:17:37;;;;;;;2.10;1.30;;;;;;;-2.67;99.77;99206.94;3636988;80;44095;-16
2021/03/19 22:22:44;;;;;;;2.40;1.23;;;;;;;-2.82;100.00;99201.33;3638109;80;43381;-16
2021/03/19 22:27:50;;;;;;;3.60;1.40;;;;;;;-2.97;100.00;99214.63;3638365;80;43749;-18
2021/03/19 22:32:58;;;;;;;2.87;1.30;;;;;;;-3.16;100.00;99205.20;3644944;80;44098;-17
2021/03/19 22:38:05;;;;;;;3.60;1.60;;;;;;;-3.21;100.00;99208.45;3637473;80;44148;-16
2021/03/19 22:43:12;;;;;;;3.77;1.50;;;;;;;-3.35;100.00;99216.02;3636194;80;44164;-16
2021/03/19 22:48:19;;;;;;;1.57;1.17;;;;;;;-3.45;100.00;99216.31;3631765;80;44708;-19
2021/03/19 22:53:26;;;;;;;3.60;1.50;;;;;;;-3.54;100.00;99214.00;3625134;79;44469;-16
2021/03/19 22:58:35;;;;;;;1.87;1.40;;;;;;;-3.59;100.00;99219.90;3713911;78;44065;-16
2021/03/19 23:03:42;;;;;;;2.37;1.10;;;;;;;-3.68;100.00;99222.82;3720758;77;43281;-16
2021/03/19 23:08:49;;;;;;;2.60;1.30;;;;;;;-3.74;100.00;99224.77;3619676;80;43760;-16
2021/03/19 23:13:58;;;;;;;4.10;1.43;;;;;;;-3.79;100.00;99217.46;3715175;78;43718;-16
2021/03/19 23:19:05;;;;;;;2.63;1.30;;;;;;;-3.82;100.00;99224.14;3711294;78;43989;-16
2021/03/19 23:24:12;;;;;;;4.90;1.40;;;;;;;-3.87;100.00;99219.50;3720119;77;44048;-16
2021/03/19 23:29:21;;;;;;;3.23;1.30;;;;;;;-3.97;100.00;99223.34;3706522;78;43149;-17
2021/03/19 23:34:28;;;;;;;1.43;1.07;;;;;;;-4.07;100.00;99231.55;3624002;80;43712;-17
2021/03/19 23:39:34;;;;;;;3.23;1.30;;;;;;;-4.20;100.00;99243.37;3702272;78;44070;-16
2021/03/19 23:44:40;;;;;;;1.80;1.03;;;;;;;-4.21;100.00;99239.86;3704379;78;44842;-16
2021/03/19 23:49:48;;;;;;;1.60;1.10;;;;;;;-4.27;100.00;99239.19;3697030;78;43685;-17
2021/03/19 23:54:53;;;;;;;2.27;1.23;;;;;;;-4.30;100.00;99242.78;3732957;78;43435;-17
